sensor_id;sensor_type;location;lat;lon;timestamp;pressure;altitude;pressure_sealevel;temperature;humidity
86684;BME280;77427;42.228;24.728;2024-03-25T00:02:00;97825.75;;;22.60;41.22
86684;BME280;77427;42.228;24.728;2024-03-25T00:04:25;97846.22;;;22.63;41.24
86684;BME280;77427;42.228;24.728;2024-03-25T00:06:51;97852.00;;;22.66;41.42
86684;BME280;77427;42.228;24.728;2024-03-25T00:09:18;97839.78;;;22.69;40.86
86684;BME280;77427;42.228;24.728;2024-03-25T00:11:43;97841.09;;;22.66;41.11
86684;BME280;77427;42.228;24.728;2024-03-25T00:14:09;97823.63;;;22.62;41.40
86684;BME280;77427;42.228;24.728;2024-03-25T00:16:35;97808.94;;;22.63;41.36
86684;BME280;77427;42.228;24.728;2024-03-25T00:19:01;97822.31;;;22.65;41.33
86684;BME280;77427;42.228;24.728;2024-03-25T00:21:27;97831.06;;;22.67;40.67
86684;BME280;77427;42.228;24.728;2024-03-25T00:23:52;97820.31;;;22.60;41.55
86684;BME280;77427;42.228;24.728;2024-03-25T00:26:17;97819.00;;;22.63;41.47
86684;BME280;77427;42.228;24.728;2024-03-25T00:28:43;97815.22;;;22.64;41.19
86684;BME280;77427;42.228;24.728;2024-03-25T00:31:09;97814.38;;;22.63;41.23
86684;BME280;77427;42.228;24.728;2024-03-25T00:33:34;97789.94;;;22.52;41.50
86684;BME280;77427;42.228;24.728;2024-03-25T00:35:59;97768.19;;;22.52;41.45
86684;BME280;77427;42.228;24.728;2024-03-25T00:38:25;97789.09;;;22.63;40.64
86684;BME280;77427;42.228;24.728;2024-03-25T00:40:50;97797.97;;;22.58;41.44
86684;BME280;77427;42.228;24.728;2024-03-25T00:43:16;97803.88;;;22.55;40.92
86684;BME280;77427;42.228;24.728;2024-03-25T00:45:41;97802.34;;;22.59;40.95
86684;BME280;77427;42.228;24.728;2024-03-25T00:48:07;97806.47;;;22.62;40.96
86684;BME280;77427;42.228;24.728;2024-03-25T00:50:32;97806.59;;;22.55;40.79
86684;BME280;77427;42.228;24.728;2024-03-25T00:52:58;97830.34;;;22.60;41.35
86684;BME280;77427;42.228;24.728;2024-03-25T00:55:23;97832.81;;;22.61;40.82
86684;BME280;77427;42.228;24.728;2024-03-25T00:57:50;97827.63;;;22.60;40.90
86684;BME280;77427;42.228;24.728;2024-03-25T01:00:15;97825.16;;;22.58;40.75
86684;BME280;77427;42.228;24.728;2024-03-25T01:02:41;97823.53;;;22.57;40.93
86684;BME280;77427;42.228;24.728;2024-03-25T01:05:07;97832.50;;;22.58;40.71
86684;BME280;77427;42.228;24.728;2024-03-25T01:07:33;97854.50;;;22.56;40.81
86684;BME280;77427;42.228;24.728;2024-03-25T01:09:58;97875.63;;;22.54;40.86
86684;BME280;77427;42.228;24.728;2024-03-25T01:12:24;97889.47;;;22.53;40.79
86684;BME280;77427;42.228;24.728;2024-03-25T01:14:50;97922.22;;;22.58;40.89
86684;BME280;77427;42.228;24.728;2024-03-25T01:17:16;97955.56;;;22.53;40.79
86684;BME280;77427;42.228;24.728;2024-03-25T01:19:42;97975.19;;;22.55;40.80
86684;BME280;77427;42.228;24.728;2024-03-25T01:22:08;97987.50;;;22.58;40.75
86684;BME280;77427;42.228;24.728;2024-03-25T01:24:34;97988.59;;;22.57;40.38
86684;BME280;77427;42.228;24.728;2024-03-25T01:27:00;97983.22;;;22.50;40.57
86684;BME280;77427;42.228;24.728;2024-03-25T01:29:25;97978.75;;;22.56;40.97
86684;BME280;77427;42.228;24.728;2024-03-25T01:31:50;97970.81;;;22.54;39.93
86684;BME280;77427;42.228;24.728;2024-03-25T01:34:16;97966.69;;;22.52;40.37
86684;BME280;77427;42.228;24.728;2024-03-25T01:36:42;97947.31;;;22.48;40.65
86684;BME280;77427;42.228;24.728;2024-03-25T01:39:07;97960.19;;;22.53;40.35
86684;BME280;77427;42.228;24.728;2024-03-25T01:41:33;97978.97;;;22.54;39.71
86684;BME280;77427;42.228;24.728;2024-03-25T01:43:58;97965.16;;;22.44;39.95
86684;BME280;77427;42.228;24.728;2024-03-25T01:46:24;97954.28;;;22.44;40.00
86684;BME280;77427;42.228;24.728;2024-03-25T01:48:50;97968.00;;;22.49;39.83
86684;BME280;77427;42.228;24.728;2024-03-25T01:51:18;97974.38;;;22.43;40.42
86684;BME280;77427;42.228;24.728;2024-03-25T01:53:46;97967.16;;;22.37;39.91
86684;BME280;77427;42.228;24.728;2024-03-25T01:56:14;97985.16;;;22.38;40.26
86684;BME280;77427;42.228;24.728;2024-03-25T01:58:40;98000.88;;;22.36;40.18
86684;BME280;77427;42.228;24.728;2024-03-25T02:01:05;98016.81;;;22.33;39.93
86684;BME280;77427;42.228;24.728;2024-03-25T02:03:32;98040.69;;;22.30;40.39
86684;BME280;77427;42.228;24.728;2024-03-25T02:06:01;98051.44;;;22.37;40.40
86684;BME280;77427;42.228;24.728;2024-03-25T02:08:28;98060.69;;;22.36;40.28
86684;BME280;77427;42.228;24.728;2024-03-25T02:10:54;98049.09;;;22.29;40.01
86684;BME280;77427;42.228;24.728;2024-03-25T02:13:21;98029.97;;;22.24;39.98
86684;BME280;77427;42.228;24.728;2024-03-25T02:15:47;98045.44;;;22.35;40.25
86684;BME280;77427;42.228;24.728;2024-03-25T02:18:16;98038.34;;;22.34;40.27
86684;BME280;77427;42.228;24.728;2024-03-25T02:20:41;98032.53;;;22.30;40.39
86684;BME280;77427;42.228;24.728;2024-03-25T02:23:07;98027.94;;;22.31;39.68
86684;BME280;77427;42.228;24.728;2024-03-25T02:25:35;98025.22;;;22.31;40.46
86684;BME280;77427;42.228;24.728;2024-03-25T02:28:03;98008.78;;;22.26;40.05
86684;BME280;77427;42.228;24.728;2024-03-25T02:30:28;98007.97;;;22.25;40.32
86684;BME280;77427;42.228;24.728;2024-03-25T02:32:54;98004.66;;;22.23;39.79
86684;BME280;77427;42.228;24.728;2024-03-25T02:35:21;98011.50;;;22.26;40.06
86684;BME280;77427;42.228;24.728;2024-03-25T02:37:47;98001.59;;;22.20;40.24
86684;BME280;77427;42.228;24.728;2024-03-25T02:40:15;98004.41;;;22.25;39.54
86684;BME280;77427;42.228;24.728;2024-03-25T02:42:41;98013.41;;;22.25;40.00
86684;BME280;77427;42.228;24.728;2024-03-25T02:45:07;98036.78;;;22.26;39.57
86684;BME280;77427;42.228;24.728;2024-03-25T02:47:32;98026.50;;;22.17;39.87
86684;BME280;77427;42.228;24.728;2024-03-25T02:49:57;98037.72;;;22.20;39.98
86684;BME280;77427;42.228;24.728;2024-03-25T02:52:24;98037.97;;;22.19;39.66
86684;BME280;77427;42.228;24.728;2024-03-25T02:54:50;98040.00;;;22.23;39.16
86684;BME280;77427;42.228;24.728;2024-03-25T02:57:15;98029.38;;;22.22;39.32
86684;BME280;77427;42.228;24.728;2024-03-25T02:59:40;98039.84;;;22.18;39.20
86684;BME280;77427;42.228;24.728;2024-03-25T03:02:06;98050.72;;;22.18;39.94
86684;BME280;77427;42.228;24.728;2024-03-25T03:04:31;98056.53;;;22.22;39.53
86684;BME280;77427;42.228;24.728;2024-03-25T03:06:57;98060.31;;;22.21;39.36
86684;BME280;77427;42.228;24.728;2024-03-25T03:09:22;98049.56;;;22.14;39.36
86684;BME280;77427;42.228;24.728;2024-03-25T03:11:48;98048.25;;;22.17;39.50
86684;BME280;77427;42.228;24.728;2024-03-25T03:14:14;98047.19;;;22.18;39.45
86684;BME280;77427;42.228;24.728;2024-03-25T03:16:39;98049.31;;;22.16;39.61
86684;BME280;77427;42.228;24.728;2024-03-25T03:19:05;98034.53;;;22.12;38.87
86684;BME280;77427;42.228;24.728;2024-03-25T03:21:30;98031.47;;;22.08;38.99
86684;BME280;77427;42.228;24.728;2024-03-25T03:23:56;98032.41;;;22.14;39.00
86684;BME280;77427;42.228;24.728;2024-03-25T03:26:22;98024.75;;;22.11;38.93
86684;BME280;77427;42.228;24.728;2024-03-25T03:28:54;98026.16;;;22.13;39.50
86684;BME280;77427;42.228;24.728;2024-03-25T03:31:20;98012.09;;;22.05;39.05
86684;BME280;77427;42.228;24.728;2024-03-25T03:33:49;98028.03;;;22.13;38.89
86684;BME280;77427;42.228;24.728;2024-03-25T03:36:22;98033.47;;;22.13;38.59
86684;BME280;77427;42.228;24.728;2024-03-25T03:38:50;98029.59;;;22.09;39.45
86684;BME280;77427;42.228;24.728;2024-03-25T03:41:16;98033.84;;;22.05;39.18
86684;BME280;77427;42.228;24.728;2024-03-25T03:43:42;98038.53;;;22.09;39.28
86684;BME280;77427;42.228;24.728;2024-03-25T03:46:07;98034.19;;;22.08;39.12
86684;BME280;77427;42.228;24.728;2024-03-25T03:48:32;98042.81;;;22.05;38.78
86684;BME280;77427;42.228;24.728;2024-03-25T03:50:58;98059.13;;;22.05;39.27
86684;BME280;77427;42.228;24.728;2024-03-25T03:53:23;98068.69;;;22.08;39.19
86684;BME280;77427;42.228;24.728;2024-03-25T03:55:56;98045.53;;;22.05;39.01
86684;BME280;77427;42.228;24.728;2024-03-25T03:58:22;98040.56;;;22.02;38.62
86684;BME280;77427;42.228;24.728;2024-03-25T04:00:47;98053.09;;;22.03;38.67
86684;BME280;77427;42.228;24.728;2024-03-25T04:03:13;98046.34;;;22.06;39.20
86684;BME280;77427;42.228;24.728;2024-03-25T04:05:38;98041.75;;;22.06;38.34
86684;BME280;77427;42.228;24.728;2024-03-25T04:08:04;98042.81;;;22.05;38.71
86684;BME280;77427;42.228;24.728;2024-03-25T04:10:29;98052.84;;;22.05;38.33
86684;BME280;77427;42.228;24.728;2024-03-25T04:12:55;98046.59;;;22.04;38.22
86684;BME280;77427;42.228;24.728;2024-03-25T04:15:22;98051.78;;;22.06;38.71
86684;BME280;77427;42.228;24.728;2024-03-25T04:17:47;98070.34;;;22.09;38.52
86684;BME280;77427;42.228;24.728;2024-03-25T04:20:15;98058.41;;;22.10;38.37
86684;BME280;77427;42.228;24.728;2024-03-25T04:22:44;98071.63;;;22.06;38.34
86684;BME280;77427;42.228;24.728;2024-03-25T04:25:10;98072.47;;;22.07;37.94
86684;BME280;77427;42.228;24.728;2024-03-25T04:27:42;98075.78;;;22.09;38.38
86684;BME280;77427;42.228;24.728;2024-03-25T04:30:09;98086.06;;;22.07;38.70
86684;BME280;77427;42.228;24.728;2024-03-25T04:32:35;98107.44;;;22.03;38.34
86684;BME280;77427;42.228;24.728;2024-03-25T04:35:02;98091.34;;;22.02;38.14
86684;BME280;77427;42.228;24.728;2024-03-25T04:37:28;98100.56;;;22.01;37.84
86684;BME280;77427;42.228;24.728;2024-03-25T04:39:54;98098.91;;;22.00;37.95
86684;BME280;77427;42.228;24.728;2024-03-25T04:42:20;98108.72;;;22.01;37.97
86684;BME280;77427;42.228;24.728;2024-03-25T04:44:46;98102.94;;;21.97;38.38
86684;BME280;77427;42.228;24.728;2024-03-25T04:47:11;98100.66;;;21.94;38.46
86684;BME280;77427;42.228;24.728;2024-03-25T04:49:37;98107.53;;;21.97;38.36
86684;BME280;77427;42.228;24.728;2024-03-25T04:52:06;98090.50;;;21.90;37.98
86684;BME280;77427;42.228;24.728;2024-03-25T04:54:32;98100.44;;;21.96;38.38
86684;BME280;77427;42.228;24.728;2024-03-25T04:56:57;98102.31;;;21.95;38.14
86684;BME280;77427;42.228;24.728;2024-03-25T04:59:22;98117.91;;;22.00;37.96
86684;BME280;77427;42.228;24.728;2024-03-25T05:01:48;98122.91;;;22.03;38.15
86684;BME280;77427;42.228;24.728;2024-03-25T05:04:13;98127.50;;;22.02;38.50
86684;BME280;77427;42.228;24.728;2024-03-25T05:06:38;98143.81;;;22.02;38.24
86684;BME280;77427;42.228;24.728;2024-03-25T05:09:04;98144.66;;;22.03;38.10
86684;BME280;77427;42.228;24.728;2024-03-25T05:11:31;98154.44;;;22.04;38.12
86684;BME280;77427;42.228;24.728;2024-03-25T05:13:57;98149.38;;;22.07;38.17
86684;BME280;77427;42.228;24.728;2024-03-25T05:16:22;98156.13;;;22.05;38.31
86684;BME280;77427;42.228;24.728;2024-03-25T05:18:48;98163.44;;;22.04;38.10
86684;BME280;77427;42.228;24.728;2024-03-25T05:21:13;98162.59;;;22.04;37.50
86684;BME280;77427;42.228;24.728;2024-03-25T05:23:38;98147.25;;;21.98;37.79
86684;BME280;77427;42.228;24.728;2024-03-25T05:26:04;98168.63;;;22.06;37.93
86684;BME280;77427;42.228;24.728;2024-03-25T05:28:29;98168.03;;;22.04;37.97
86684;BME280;77427;42.228;24.728;2024-03-25T05:30:55;98172.41;;;22.05;37.25
86684;BME280;77427;42.228;24.728;2024-03-25T05:33:20;98174.06;;;22.06;36.95
86684;BME280;77427;42.228;24.728;2024-03-25T05:35:45;98160.59;;;21.99;37.15
86684;BME280;77427;42.228;24.728;2024-03-25T05:38:11;98175.25;;;22.10;36.98
86684;BME280;77427;42.228;24.728;2024-03-25T05:40:36;98181.16;;;22.07;37.01
86684;BME280;77427;42.228;24.728;2024-03-25T05:43:02;98189.09;;;22.08;37.18
86684;BME280;77427;42.228;24.728;2024-03-25T05:45:27;98178.91;;;22.04;37.11
86684;BME280;77427;42.228;24.728;2024-03-25T05:47:52;98199.66;;;22.16;37.00
86684;BME280;77427;42.228;24.728;2024-03-25T05:50:18;98182.81;;;22.08;37.22
86684;BME280;77427;42.228;24.728;2024-03-25T05:52:43;98195.50;;;22.14;37.13
86684;BME280;77427;42.228;24.728;2024-03-25T05:55:09;98199.66;;;22.16;36.47
86684;BME280;77427;42.228;24.728;2024-03-25T05:57:37;98202.72;;;22.20;36.80
86684;BME280;77427;42.228;24.728;2024-03-25T06:00:03;98207.78;;;22.16;36.74
86684;BME280;77427;42.228;24.728;2024-03-25T06:02:29;98209.44;;;22.17;36.52
86684;BME280;77427;42.228;24.728;2024-03-25T06:04:55;98198.88;;;22.09;36.41
86684;BME280;77427;42.228;24.728;2024-03-25T06:07:22;98213.00;;;22.18;36.22
86684;BME280;77427;42.228;24.728;2024-03-25T06:09:47;98235.53;;;22.18;36.59
86684;BME280;77427;42.228;24.728;2024-03-25T06:12:12;98238.25;;;22.18;36.26
86684;BME280;77427;42.228;24.728;2024-03-25T06:14:38;98234.13;;;22.16;36.27
86684;BME280;77427;42.228;24.728;2024-03-25T06:17:03;98249.84;;;22.14;36.38
86684;BME280;77427;42.228;24.728;2024-03-25T06:19:29;98255.53;;;22.12;36.66
86684;BME280;77427;42.228;24.728;2024-03-25T06:21:54;98256.31;;;22.13;35.77
86684;BME280;77427;42.228;24.728;2024-03-25T06:24:19;98254.44;;;22.13;35.66
86684;BME280;77427;42.228;24.728;2024-03-25T06:26:45;98265.78;;;22.10;36.25
86684;BME280;77427;42.228;24.728;2024-03-25T06:29:10;98247.53;;;21.99;36.24
86684;BME280;77427;42.228;24.728;2024-03-25T06:31:36;98261.63;;;22.08;36.42
86684;BME280;77427;42.228;24.728;2024-03-25T06:34:20;98272.06;;;22.11;36.02
86684;BME280;77427;42.228;24.728;2024-03-25T06:36:48;98280.41;;;22.09;35.81
86684;BME280;77427;42.228;24.728;2024-03-25T06:39:17;98284.69;;;22.05;35.88
86684;BME280;77427;42.228;24.728;2024-03-25T06:41:43;98280.28;;;22.04;36.41
86684;BME280;77427;42.228;24.728;2024-03-25T06:44:09;98288.66;;;22.03;36.22
86684;BME280;77427;42.228;24.728;2024-03-25T06:46:34;98296.13;;;22.07;36.39
86684;BME280;77427;42.228;24.728;2024-03-25T06:49:00;98296.72;;;22.09;36.09
86684;BME280;77427;42.228;24.728;2024-03-25T06:51:25;98293.41;;;22.07;35.79
86684;BME280;77427;42.228;24.728;2024-03-25T06:53:51;98286.56;;;22.05;36.30
86684;BME280;77427;42.228;24.728;2024-03-25T06:56:17;98296.97;;;22.08;36.12
86684;BME280;77427;42.228;24.728;2024-03-25T06:58:42;98291.63;;;22.01;36.10
86684;BME280;77427;42.228;24.728;2024-03-25T07:01:09;98294.09;;;22.03;36.56
86684;BME280;77427;42.228;24.728;2024-03-25T07:03:37;98299.06;;;22.06;36.50
86684;BME280;77427;42.228;24.728;2024-03-25T07:06:03;98285.34;;;22.01;36.49
86684;BME280;77427;42.228;24.728;2024-03-25T07:08:29;98286.38;;;22.00;36.11
86684;BME280;77427;42.228;24.728;2024-03-25T07:10:55;98293.50;;;22.01;36.80
86684;BME280;77427;42.228;24.728;2024-03-25T07:13:21;98301.19;;;22.04;36.54
86684;BME280;77427;42.228;24.728;2024-03-25T07:15:46;98308.66;;;22.08;36.66
86684;BME280;77427;42.228;24.728;2024-03-25T07:18:12;98308.91;;;22.07;36.17
86684;BME280;77427;42.228;24.728;2024-03-25T07:20:41;98308.91;;;22.07;36.52
86684;BME280;77427;42.228;24.728;2024-03-25T07:23:06;98317.41;;;22.10;36.81
86684;BME280;77427;42.228;24.728;2024-03-25T07:25:32;98311.75;;;22.12;36.80
86684;BME280;77427;42.228;24.728;2024-03-25T07:27:57;98305.09;;;22.08;37.07
86684;BME280;77427;42.228;24.728;2024-03-25T07:30:23;98316.59;;;22.10;36.54
86684;BME280;77427;42.228;24.728;2024-03-25T07:32:52;98315.53;;;22.11;36.43
86684;BME280;77427;42.228;24.728;2024-03-25T07:35:18;98312.00;;;22.10;36.56
86684;BME280;77427;42.228;24.728;2024-03-25T07:37:44;98310.31;;;22.09;37.05
86684;BME280;77427;42.228;24.728;2024-03-25T07:40:09;98326.56;;;22.16;36.58
86684;BME280;77427;42.228;24.728;2024-03-25T07:42:37;98322.53;;;22.18;36.95
86684;BME280;77427;42.228;24.728;2024-03-25T07:45:03;98313.63;;;22.11;36.39
86684;BME280;77427;42.228;24.728;2024-03-25T07:47:30;98315.31;;;22.12;37.28
86684;BME280;77427;42.228;24.728;2024-03-25T07:49:55;98308.81;;;22.13;36.87
86684;BME280;77427;42.228;24.728;2024-03-25T07:52:21;98338.16;;;22.23;36.62
86684;BME280;77427;42.228;24.728;2024-03-25T07:54:46;98320.50;;;22.14;36.73
86684;BME280;77427;42.228;24.728;2024-03-25T07:57:12;98335.22;;;22.24;36.73
86684;BME280;77427;42.228;24.728;2024-03-25T07:59:38;98341.03;;;22.28;37.02
86684;BME280;77427;42.228;24.728;2024-03-25T08:02:03;98331.75;;;22.17;36.89
86684;BME280;77427;42.228;24.728;2024-03-25T08:04:29;98344.69;;;22.22;36.99
86684;BME280;77427;42.228;24.728;2024-03-25T08:06:54;98331.69;;;22.24;36.92
86684;BME280;77427;42.228;24.728;2024-03-25T08:09:20;98339.75;;;22.30;36.96
86684;BME280;77427;42.228;24.728;2024-03-25T08:11:45;98348.28;;;22.34;36.66
86684;BME280;77427;42.228;24.728;2024-03-25T08:14:11;98344.72;;;22.33;36.69
86684;BME280;77427;42.228;24.728;2024-03-25T08:16:36;98338.72;;;22.43;36.53
86684;BME280;77427;42.228;24.728;2024-03-25T08:19:02;98344.03;;;22.38;36.96
86684;BME280;77427;42.228;24.728;2024-03-25T08:21:27;98345.25;;;22.42;36.84
86684;BME280;77427;42.228;24.728;2024-03-25T08:23:53;98346.66;;;22.45;36.63
86684;BME280;77427;42.228;24.728;2024-03-25T08:26:19;98331.97;;;22.34;36.29
86684;BME280;77427;42.228;24.728;2024-03-25T08:28:44;98327.34;;;22.35;36.37
86684;BME280;77427;42.228;24.728;2024-03-25T08:31:10;98344.63;;;22.40;36.46
86684;BME280;77427;42.228;24.728;2024-03-25T08:33:35;98344.78;;;22.45;36.10
86684;BME280;77427;42.228;24.728;2024-03-25T08:36:01;98355.66;;;22.45;36.59
86684;BME280;77427;42.228;24.728;2024-03-25T08:38:27;98358.97;;;22.47;36.25
86684;BME280;77427;42.228;24.728;2024-03-25T08:40:53;98362.28;;;22.49;36.36
86684;BME280;77427;42.228;24.728;2024-03-25T08:43:19;98349.78;;;22.48;36.04
86684;BME280;77427;42.228;24.728;2024-03-25T08:45:45;98359.34;;;22.51;35.88
86684;BME280;77427;42.228;24.728;2024-03-25T08:48:11;98345.84;;;22.44;35.81
86684;BME280;77427;42.228;24.728;2024-03-25T08:50:36;98350.94;;;22.52;35.53
86684;BME280;77427;42.228;24.728;2024-03-25T08:53:03;98358.97;;;22.47;35.54
86684;BME280;77427;42.228;24.728;2024-03-25T08:55:28;98360.50;;;22.43;35.71
86684;BME280;77427;42.228;24.728;2024-03-25T08:57:54;98363.81;;;22.45;36.07
86684;BME280;77427;42.228;24.728;2024-03-25T09:00:19;98365.84;;;22.50;35.69
86684;BME280;77427;42.228;24.728;2024-03-25T09:02:44;98371.84;;;22.40;35.79
86684;BME280;77427;42.228;24.728;2024-03-25T09:05:10;98376.44;;;22.40;36.24
86684;BME280;77427;42.228;24.728;2024-03-25T09:07:36;98371.38;;;22.43;35.91
86684;BME280;77427;42.228;24.728;2024-03-25T09:10:01;98378.00;;;22.47;35.81
86684;BME280;77427;42.228;24.728;2024-03-25T09:12:45;98371.84;;;22.40;35.96
86684;BME280;77427;42.228;24.728;2024-03-25T09:15:11;98377.88;;;22.42;36.32
86684;BME280;77427;42.228;24.728;2024-03-25T09:17:36;98373.16;;;22.49;36.33
86684;BME280;77427;42.228;24.728;2024-03-25T09:20:02;98368.56;;;22.50;36.26
86684;BME280;77427;42.228;24.728;2024-03-25T09:22:48;98363.13;;;22.50;35.95
86684;BME280;77427;42.228;24.728;2024-03-25T09:25:15;98378.75;;;22.54;35.80
86684;BME280;77427;42.228;24.728;2024-03-25T09:27:40;98364.75;;;22.57;35.81
86684;BME280;77427;42.228;24.728;2024-03-25T09:30:07;98376.25;;;22.53;35.79
86684;BME280;77427;42.228;24.728;2024-03-25T09:32:34;98377.53;;;22.50;35.73
86684;BME280;77427;42.228;24.728;2024-03-25T09:35:00;98371.72;;;22.47;36.11
86684;BME280;77427;42.228;24.728;2024-03-25T09:37:26;98353.84;;;22.39;35.70
86684;BME280;77427;42.228;24.728;2024-03-25T09:39:52;98384.53;;;22.46;35.22
86684;BME280;77427;42.228;24.728;2024-03-25T09:42:25;98379.44;;;22.50;36.00
86684;BME280;77427;42.228;24.728;2024-03-25T09:44:53;98379.38;;;22.56;35.58
86684;BME280;77427;42.228;24.728;2024-03-25T09:47:19;98383.16;;;22.55;35.19
86684;BME280;77427;42.228;24.728;2024-03-25T09:49:45;98397.75;;;22.61;35.86
86684;BME280;77427;42.228;24.728;2024-03-25T09:52:11;98394.56;;;22.64;35.40
86684;BME280;77427;42.228;24.728;2024-03-25T09:54:37;98412.69;;;22.70;35.31
86684;BME280;77427;42.228;24.728;2024-03-25T09:57:03;98406.50;;;22.63;34.89
86684;BME280;77427;42.228;24.728;2024-03-25T09:59:29;98410.81;;;22.70;35.09
86684;BME280;77427;42.228;24.728;2024-03-25T10:01:55;98414.25;;;22.77;35.59
86684;BME280;77427;42.228;24.728;2024-03-25T10:04:21;98420.38;;;22.73;35.21
86684;BME280;77427;42.228;24.728;2024-03-25T10:06:47;98408.91;;;22.71;35.51
86684;BME280;77427;42.228;24.728;2024-03-25T10:09:13;98411.53;;;22.77;35.04
86684;BME280;77427;42.228;24.728;2024-03-25T10:11:39;98405.25;;;22.77;34.58
86684;BME280;77427;42.228;24.728;2024-03-25T10:14:04;98406.78;;;22.73;34.79
86684;BME280;77427;42.228;24.728;2024-03-25T10:16:30;98408.75;;;22.66;34.90
86684;BME280;77427;42.228;24.728;2024-03-25T10:18:55;98418.81;;;22.65;35.50
86684;BME280;77427;42.228;24.728;2024-03-25T10:21:21;98417.91;;;22.71;35.41
86684;BME280;77427;42.228;24.728;2024-03-25T10:23:48;98415.16;;;22.71;35.30
86684;BME280;77427;42.228;24.728;2024-03-25T10:26:31;98411.59;;;22.59;34.99
86684;BME280;77427;42.228;24.728;2024-03-25T10:29:00;98415.34;;;22.58;35.03
86684;BME280;77427;42.228;24.728;2024-03-25T10:31:25;98410.78;;;22.52;35.23
86684;BME280;77427;42.228;24.728;2024-03-25T10:33:51;98424.84;;;22.67;35.96
86684;BME280;77427;42.228;24.728;2024-03-25T10:36:18;98411.13;;;22.62;36.72
86684;BME280;77427;42.228;24.728;2024-03-25T10:38:45;98417.84;;;22.60;37.21
86684;BME280;77427;42.228;24.728;2024-03-25T10:41:13;98418.50;;;22.55;35.72
86684;BME280;77427;42.228;24.728;2024-03-25T10:43:46;98412.16;;;22.61;35.66
86684;BME280;77427;42.228;24.728;2024-03-25T10:46:19;98418.59;;;22.67;36.42
86684;BME280;77427;42.228;24.728;2024-03-25T10:48:53;98419.50;;;22.61;36.74
86684;BME280;77427;42.228;24.728;2024-03-25T10:51:21;98406.59;;;22.56;36.06
86684;BME280;77427;42.228;24.728;2024-03-25T10:53:49;98409.06;;;22.58;36.02
86684;BME280;77427;42.228;24.728;2024-03-25T10:56:20;98417.75;;;22.66;36.19
86684;BME280;77427;42.228;24.728;2024-03-25T10:58:48;98409.00;;;22.64;36.64
86684;BME280;77427;42.228;24.728;2024-03-25T11:01:14;98403.03;;;22.56;37.13
86684;BME280;77427;42.228;24.728;2024-03-25T11:03:41;98417.59;;;22.61;36.08
86684;BME280;77427;42.228;24.728;2024-03-25T11:06:07;98413.16;;;22.67;36.12
86684;BME280;77427;42.228;24.728;2024-03-25T11:08:33;98409.13;;;22.69;35.57
86684;BME280;77427;42.228;24.728;2024-03-25T11:10:59;98411.41;;;22.72;35.55
86684;BME280;77427;42.228;24.728;2024-03-25T11:13:27;98417.13;;;22.82;35.53
86684;BME280;77427;42.228;24.728;2024-03-25T11:15:52;98419.16;;;22.87;34.51
86684;BME280;77427;42.228;24.728;2024-03-25T11:18:22;98424.84;;;22.85;34.89
86684;BME280;77427;42.228;24.728;2024-03-25T11:21:07;98426.34;;;22.81;35.00
86684;BME280;77427;42.228;24.728;2024-03-25T11:23:40;98433.75;;;22.74;35.18
86684;BME280;77427;42.228;24.728;2024-03-25T11:26:17;98418.63;;;22.78;34.78
86684;BME280;77427;42.228;24.728;2024-03-25T11:28:43;98423.16;;;22.84;34.68
86684;BME280;77427;42.228;24.728;2024-03-25T11:31:09;98405.38;;;22.70;34.96
86684;BME280;77427;42.228;24.728;2024-03-25T11:33:39;98429.28;;;22.80;34.52
86684;BME280;77427;42.228;24.728;2024-03-25T11:36:05;98423.69;;;22.75;34.73
86684;BME280;77427;42.228;24.728;2024-03-25T11:38:31;98437.22;;;22.81;34.92
86684;BME280;77427;42.228;24.728;2024-03-25T11:40:57;98427.56;;;22.85;34.73
86684;BME280;77427;42.228;24.728;2024-03-25T11:43:23;98423.75;;;22.86;35.06
86684;BME280;77427;42.228;24.728;2024-03-25T11:45:49;98433.13;;;22.90;34.33
86684;BME280;77427;42.228;24.728;2024-03-25T11:48:15;98438.22;;;22.98;34.12
86684;BME280;77427;42.228;24.728;2024-03-25T11:50:44;98424.38;;;22.88;33.99
86684;BME280;77427;42.228;24.728;2024-03-25T11:53:10;98443.53;;;22.93;34.36
86684;BME280;77427;42.228;24.728;2024-03-25T11:55:35;98445.53;;;22.86;34.13
86684;BME280;77427;42.228;24.728;2024-03-25T11:58:01;98437.38;;;22.86;34.29
86684;BME280;77427;42.228;24.728;2024-03-25T12:00:26;98444.63;;;22.92;33.74
86684;BME280;77427;42.228;24.728;2024-03-25T12:02:52;98441.91;;;22.92;33.92
86684;BME280;77427;42.228;24.728;2024-03-25T12:05:18;98452.91;;;22.97;34.26
86684;BME280;77427;42.228;24.728;2024-03-25T12:07:43;98445.47;;;23.04;33.99
86684;BME280;77427;42.228;24.728;2024-03-25T12:10:09;98435.06;;;23.01;33.45
86684;BME280;77427;42.228;24.728;2024-03-25T12:12:53;98436.22;;;22.94;33.86
86684;BME280;77427;42.228;24.728;2024-03-25T12:15:19;98427.75;;;22.84;33.88
86684;BME280;77427;42.228;24.728;2024-03-25T12:17:45;98436.53;;;22.86;34.24
86684;BME280;77427;42.228;24.728;2024-03-25T12:20:11;98444.00;;;22.90;34.13
86684;BME280;77427;42.228;24.728;2024-03-25T12:22:37;98441.91;;;22.92;33.89
86684;BME280;77427;42.228;24.728;2024-03-25T12:25:04;98430.66;;;22.89;33.66
86684;BME280;77427;42.228;24.728;2024-03-25T12:27:35;98439.06;;;22.99;33.67
86684;BME280;77427;42.228;24.728;2024-03-25T12:30:10;98437.19;;;22.99;33.08
86684;BME280;77427;42.228;24.728;2024-03-25T12:35:14;98433.38;;;22.89;33.66
86684;BME280;77427;42.228;24.728;2024-03-25T12:37:41;98444.25;;;22.89;33.50
86684;BME280;77427;42.228;24.728;2024-03-25T12:40:09;98451.72;;;22.93;33.71
86684;BME280;77427;42.228;24.728;2024-03-25T12:42:36;98454.78;;;22.97;33.60
86684;BME280;77427;42.228;24.728;2024-03-25T12:45:03;98461.19;;;22.91;33.55
86684;BME280;77427;42.228;24.728;2024-03-25T12:47:29;98459.81;;;22.82;33.67
86684;BME280;77427;42.228;24.728;2024-03-25T12:49:56;98478.66;;;22.83;33.50